This is the latest recevied weather packets stored in our database for station/object JE9BHE-13. If no packets are shown the sender has not sent any weather packets the latest 10 day(s).
| Time | Temp. | Humidity | Pressure | Rain* | Wind** | Luminosity | Snow |
|---|---|---|---|---|---|---|---|
| 1777860726 | 16.67° C | 83% | 1006 hPa | 0 mm | - | - | - |
| 1777860185 | 16.11° C | 86% | 1005.9 hPa | 0 mm | - | - | - |
| 1777858386 | 17.78° C | 81% | 1005.3 hPa | 0 mm | - | - | - |
| 1777857486 | 17.78° C | 81% | 1005.5 hPa | 0 mm | - | - | - |
| 1777856046 | 17.78° C | 81% | 1005.3 hPa | 0 mm | - | - | - |
| 1777855506 | 17.78° C | 82% | 1005.1 hPa | 0 mm | - | - | - |
| 1777855326 | 17.78° C | 81% | 1004.9 hPa | 0 mm | - | - | - |
| 1777854606 | 17.78° C | 83% | 1005.1 hPa | 0 mm | - | - | - |
| 1777852985 | 18.33° C | 82% | 1005 hPa | 0 mm | - | - | - |
| 1777850467 | 17.78° C | 88% | 1004.8 hPa | 0 mm | - | - | - |
| 1777849927 | 17.78° C | 88% | 1004.9 hPa | 0 mm | - | - | - |
| 1777849387 | 18.33° C | 87% | 1004.9 hPa | 0 mm | - | - | - |
| 1777848308 | 17.78° C | 86% | 1004.8 hPa | 0 mm | - | - | - |
| 1777848127 | 17.78° C | 86% | 1005 hPa | 0 mm | - | - | - |
| 1777846868 | 17.78° C | 91% | 1004.9 hPa | 0 mm | - | - | - |
| 1777845787 | 16.67° C | 94% | 1004.6 hPa | 0 mm | - | - | - |
| 1777844347 | 15.56° C | 95% | 1005 hPa | 0 mm | - | - | - |
| 1777842728 | 15.56° C | 95% | 1004.4 hPa | 0 mm | - | - | - |
| 1777840567 | 15.56° C | 95% | 1004.2 hPa | 0 mm | - | - | - |
| 1777837687 | 16.11° C | 91% | 1003.4 hPa | 0.25 mm | - | - | - |
| 1777836427 | 15.56° C | 93% | 1003 hPa | 1.27 mm | - | - | - |
| 1777834087 | 16.11° C | 90% | 1002 hPa | 1.27 mm | - | - | - |
| 1777833728 | 16.11° C | 92% | 1002 hPa | 1.27 mm | - | - | - |
| 1777833547 | 16.11° C | 91% | 1001.9 hPa | 1.27 mm | - | - | - |
| 1777833187 | 16.11° C | 91% | 1002.1 hPa | 1.52 mm | - | - | - |
* Rain latest hour (hover to see other rain measurements)
** Current wind speed in m/s (hover to see current wind gust speed)